Time,TemperatureF,DewpointF,PressureIn,WindDirection,WindDirectionDegrees,WindSpeedMPH,WindSpeedGustMPH,Humidity,HourlyPrecipIn,Conditions,Clouds,dailyrainin,SolarRadiationWatts/m^2,SoftwareType,DateUTC
2013-02-25 00:11:00,-2.0,-7.0,-100.00,NNE,30,0.0,2.0,80,-99.99,,,-99.99,0.000000,,2013-02-25 05:11:00,
2013-02-25 01:11:00,-4.0,-9.0,-100.00,North,350,0.0,2.0,78,-99.99,,,0.30,0.000000,,2013-02-25 06:11:00,
2013-02-25 01:21:00,-4.0,-9.0,-100.00,North,350,0.0,2.0,78,-99.99,,,0.30,0.000000,,2013-02-25 06:21:00,
2013-02-25 02:11:00,-6.0,-11.0,-100.00,NNW,338,0.0,2.0,78,-99.99,,,0.30,0.000000,,2013-02-25 07:11:00,
2013-02-25 02:21:00,-6.0,-11.0,-100.00,NNW,338,0.0,2.0,78,-99.99,,,0.30,0.000000,,2013-02-25 07:21:00,
2013-02-25 03:11:00,-2.0,-6.0,-100.00,NNE,12,0.0,2.0,81,-99.99,,,0.30,0.000000,,2013-02-25 08:11:00,
2013-02-25 03:21:00,-2.0,-6.0,-100.00,NNE,12,0.0,2.0,81,-99.99,,,0.30,0.000000,,2013-02-25 08:21:00,
2013-02-25 03:31:00,-2.0,-6.0,-100.00,NNE,12,0.0,2.0,81,-99.99,,,0.30,0.000000,,2013-02-25 08:31:00,
2013-02-25 04:12:00,3.0,-1.0,-100.00,North,6,0.0,2.0,82,0.00,,,0.30,0.000000,,2013-02-25 09:12:00,
2013-02-25 04:21:00,3.0,-1.0,-100.00,North,6,0.0,2.0,82,0.00,,,0.30,0.000000,,2013-02-25 09:21:00,
2013-02-25 04:31:00,3.0,-1.0,-100.00,North,6,0.0,2.0,82,0.00,,,0.30,0.000000,,2013-02-25 09:31:00,
2013-02-25 04:41:00,3.0,-1.0,-100.00,North,6,0.0,2.0,82,0.00,,,0.30,0.000000,,2013-02-25 09:41:00,
2013-02-25 05:11:00,6.0,2.0,-100.00,NNE,12,0.0,2.0,83,0.00,,,0.30,0.000000,,2013-02-25 10:11:00,
2013-02-25 05:21:00,6.0,2.0,-100.00,NNE,12,0.0,2.0,83,0.00,,,0.30,0.000000,,2013-02-25 10:21:00,
2013-02-25 05:31:00,6.0,2.0,-100.00,NNE,12,0.0,2.0,83,0.00,,,0.30,0.000000,,2013-02-25 10:31:00,
2013-02-25 05:41:00,6.0,2.0,-100.00,NNE,12,0.0,2.0,83,0.00,,,0.30,0.000000,,2013-02-25 10:41:00,
2013-02-25 06:11:00,7.0,3.0,-100.00,ESE,111,0.0,2.0,83,0.00,,,0.30,0.000000,,2013-02-25 11:11:00,
2013-02-25 06:21:00,7.0,3.0,-100.00,ESE,111,0.0,2.0,83,0.00,,,0.30,0.000000,,2013-02-25 11:21:00,
2013-02-25 06:32:00,7.0,3.0,-100.00,ESE,111,0.0,2.0,83,0.00,,,0.30,0.000000,,2013-02-25 11:32:00,
2013-02-25 06:42:00,7.0,3.0,-100.00,ESE,111,0.0,2.0,83,0.00,,,0.30,0.000000,,2013-02-25 11:42:00,
2013-02-25 07:11:00,8.0,4.0,-100.00,NNE,21,0.0,2.0,84,0.00,,,0.30,0.000000,,2013-02-25 12:11:00,
2013-02-25 07:21:00,8.0,4.0,-100.00,NNE,21,0.0,2.0,84,0.00,,,0.30,0.000000,,2013-02-25 12:21:00,
2013-02-25 07:32:00,8.0,4.0,-100.00,NNE,21,0.0,2.0,84,0.00,,,0.30,0.000000,,2013-02-25 12:32:00,
2013-02-25 07:41:00,8.0,4.0,-100.00,NNE,21,0.0,2.0,84,0.00,,,0.30,0.000000,,2013-02-25 12:41:00,
2013-02-25 08:12:00,9.0,5.0,-100.00,North,352,0.0,0.0,84,0.00,,,0.30,0.000000,,2013-02-25 13:12:00,
2013-02-25 08:22:00,9.0,5.0,-100.00,North,352,0.0,0.0,84,0.00,,,0.30,0.000000,,2013-02-25 13:22:00,
2013-02-25 08:32:00,9.0,5.0,-100.00,North,352,0.0,0.0,84,0.00,,,0.30,0.000000,,2013-02-25 13:32:00,
2013-02-25 08:41:00,9.0,5.0,-100.00,North,352,0.0,0.0,84,0.00,,,0.30,0.000000,,2013-02-25 13:41:00,
2013-02-25 09:16:00,9.0,5.0,-100.00,NNW,345,0.0,0.0,85,0.00,,,0.30,0.000000,,2013-02-25 14:16:00,
2013-02-25 09:21:00,9.0,5.0,-100.00,NNW,345,0.0,0.0,85,0.00,,,0.30,0.000000,,2013-02-25 14:21:00,
2013-02-25 09:31:00,9.0,5.0,-100.00,NNW,345,0.0,0.0,85,0.00,,,0.30,0.000000,,2013-02-25 14:31:00,
2013-02-25 09:41:00,9.0,5.0,-100.00,NNW,345,0.0,0.0,85,0.00,,,0.30,0.000000,,2013-02-25 14:41:00,
2013-02-25 10:11:00,10.0,6.0,-100.00,North,357,0.0,0.0,85,0.00,,,0.30,7.000000,,2013-02-25 15:11:00,
2013-02-25 10:21:00,10.0,6.0,-100.00,North,357,0.0,0.0,85,0.00,,,0.30,7.000000,,2013-02-25 15:21:00,
2013-02-25 10:32:00,10.0,6.0,-100.00,North,357,0.0,0.0,85,0.00,,,0.30,7.000000,,2013-02-25 15:32:00,
2013-02-25 10:41:00,10.0,6.0,-100.00,North,357,0.0,0.0,85,0.00,,,0.30,7.000000,,2013-02-25 15:41:00,
2013-02-25 11:11:00,14.0,10.0,-100.00,NNE,22,0.0,0.0,82,0.00,,,0.30,35.000000,,2013-02-25 16:11:00,
2013-02-25 11:21:00,14.0,10.0,-100.00,NNE,22,0.0,0.0,82,0.00,,,0.30,35.000000,,2013-02-25 16:21:00,
2013-02-25 11:31:00,14.0,10.0,-100.00,NNE,22,0.0,0.0,82,0.00,,,0.30,35.000000,,2013-02-25 16:31:00,
2013-02-25 11:41:00,14.0,10.0,-100.00,NNE,22,0.0,0.0,82,0.00,,,0.30,35.000000,,2013-02-25 16:41:00,
2013-02-25 12:11:00,21.0,12.0,-100.00,ENE,64,0.0,2.0,68,0.00,,,-99.99,130.000000,,2013-02-25 17:11:00,
2013-02-25 12:21:00,21.0,12.0,-100.00,ENE,64,0.0,2.0,68,0.00,,,-99.99,130.000000,,2013-02-25 17:21:00,
2013-02-25 12:31:00,21.0,12.0,-100.00,ENE,64,0.0,2.0,68,0.00,,,-99.99,130.000000,,2013-02-25 17:31:00,
2013-02-25 12:41:00,21.0,12.0,-100.00,ENE,64,0.0,2.0,68,0.00,,,-99.99,130.000000,,2013-02-25 17:41:00,
2013-02-25 13:12:00,24.0,15.0,-100.00,SW,228,1.0,5.0,67,0.00,,,0.29,225.000000,,2013-02-25 18:12:00,
2013-02-25 13:21:00,24.0,15.0,-100.00,SW,228,1.0,5.0,67,0.00,,,0.29,225.000000,,2013-02-25 18:21:00,
2013-02-25 13:32:00,24.0,15.0,-100.00,SW,228,1.0,5.0,67,0.00,,,0.29,225.000000,,2013-02-25 18:32:00,
2013-02-25 13:41:00,24.0,15.0,-100.00,SW,228,1.0,5.0,67,0.00,,,0.29,225.000000,,2013-02-25 18:41:00,
2013-02-25 14:11:00,24.0,13.0,-100.00,WSW,248,3.0,7.0,63,0.00,,,0.17,202.000000,,2013-02-25 19:11:00,
2013-02-25 14:21:00,24.0,13.0,-100.00,WSW,248,3.0,7.0,63,0.00,,,0.17,202.000000,,2013-02-25 19:21:00,
2013-02-25 14:31:00,24.0,13.0,-100.00,WSW,248,3.0,7.0,63,0.00,,,0.17,202.000000,,2013-02-25 19:31:00,
2013-02-25 14:41:00,24.0,13.0,-100.00,WSW,248,3.0,7.0,63,0.00,,,0.17,202.000000,,2013-02-25 19:41:00,
2013-02-25 15:11:00,26.0,14.0,-100.00,SSW,194,3.0,7.0,60,0.00,,,0.06,299.000000,,2013-02-25 20:11:00,
2013-02-25 15:21:00,26.0,14.0,-100.00,SSW,194,3.0,7.0,60,0.00,,,0.06,299.000000,,2013-02-25 20:21:00,
2013-02-25 15:31:00,26.0,14.0,-100.00,SSW,194,3.0,7.0,60,0.00,,,0.06,299.000000,,2013-02-25 20:31:00,
2013-02-25 15:41:00,26.0,14.0,-100.00,SSW,194,3.0,7.0,60,0.00,,,0.06,299.000000,,2013-02-25 20:41:00,
2013-02-25 16:11:00,26.0,14.0,-100.00,West,276,2.0,6.0,61,0.00,,,0.01,265.000000,,2013-02-25 21:11:00,
2013-02-25 16:21:00,26.0,14.0,-100.00,West,276,2.0,6.0,61,0.00,,,0.01,265.000000,,2013-02-25 21:21:00,
2013-02-25 16:31:00,26.0,14.0,-100.00,West,276,2.0,6.0,61,0.00,,,0.01,265.000000,,2013-02-25 21:31:00,
2013-02-25 16:41:00,26.0,14.0,-100.00,West,276,2.0,6.0,61,0.00,,,0.01,265.000000,,2013-02-25 21:41:00,
2013-02-25 17:11:00,24.0,13.0,-100.00,WSW,255,3.0,8.0,61,0.00,,,0.00,182.000000,,2013-02-25 22:11:00,
2013-02-25 17:21:00,24.0,13.0,-100.00,WSW,255,3.0,8.0,61,0.00,,,0.00,182.000000,,2013-02-25 22:21:00,
2013-02-25 17:31:00,24.0,13.0,-100.00,WSW,255,3.0,8.0,61,0.00,,,0.00,182.000000,,2013-02-25 22:31:00,
2013-02-25 17:41:00,24.0,13.0,-100.00,WSW,255,3.0,8.0,61,0.00,,,0.00,182.000000,,2013-02-25 22:41:00,
2013-02-25 18:11:00,22.0,16.0,-100.00,West,271,3.0,7.0,76,0.00,,,0.00,138.000000,,2013-02-25 23:11:00,
2013-02-25 18:22:00,22.0,16.0,-100.00,West,271,3.0,7.0,76,0.00,,,0.00,138.000000,,2013-02-25 23:22:00,
2013-02-25 18:31:00,22.0,16.0,-100.00,West,271,3.0,7.0,76,0.00,,,0.00,138.000000,,2013-02-25 23:31:00,
2013-02-25 18:41:00,22.0,16.0,-100.00,West,271,3.0,7.0,76,0.00,,,0.00,138.000000,,2013-02-25 23:41:00,
2013-02-25 19:11:00,21.0,17.0,-100.00,West,265,3.0,7.0,84,0.00,,,0.00,83.000000,,2013-02-26 00:11:00,
2013-02-25 19:21:00,21.0,17.0,-100.00,West,265,3.0,7.0,84,0.00,,,0.00,83.000000,,2013-02-26 00:21:00,
2013-02-25 19:32:00,21.0,17.0,-100.00,West,265,3.0,7.0,84,0.00,,,0.00,83.000000,,2013-02-26 00:32:00,
2013-02-25 19:41:00,21.0,17.0,-100.00,West,265,3.0,7.0,84,0.00,,,0.00,83.000000,,2013-02-26 00:41:00,
2013-02-25 20:11:00,19.0,15.0,-100.00,West,273,3.0,8.0,85,0.00,,,0.00,37.000000,,2013-02-26 01:11:00,
2013-02-25 20:21:00,19.0,15.0,-100.00,West,273,3.0,8.0,85,0.00,,,0.00,37.000000,,2013-02-26 01:21:00,
2013-02-25 20:31:00,19.0,15.0,-100.00,West,273,3.0,8.0,85,0.00,,,0.00,37.000000,,2013-02-26 01:31:00,
2013-02-25 20:41:00,19.0,15.0,-100.00,West,273,3.0,8.0,85,0.00,,,0.00,37.000000,,2013-02-26 01:41:00,
2013-02-25 21:11:00,18.0,15.0,-100.00,West,259,1.0,4.0,88,0.00,,,0.00,3.000000,,2013-02-26 02:11:00,
2013-02-25 21:21:00,18.0,15.0,-100.00,West,259,1.0,4.0,88,0.00,,,0.00,3.000000,,2013-02-26 02:21:00,
2013-02-25 21:32:00,18.0,15.0,-100.00,West,259,1.0,4.0,88,0.00,,,0.00,3.000000,,2013-02-26 02:32:00,
2013-02-25 21:41:00,18.0,15.0,-100.00,West,259,1.0,4.0,88,0.00,,,0.00,3.000000,,2013-02-26 02:41:00,
2013-02-25 22:11:00,17.0,14.0,-100.00,West,260,0.0,3.0,89,0.00,,,0.00,0.000000,,2013-02-26 03:11:00,
2013-02-25 22:21:00,17.0,14.0,-100.00,West,260,0.0,3.0,89,0.00,,,0.00,0.000000,,2013-02-26 03:21:00,
2013-02-25 22:31:00,17.0,14.0,-100.00,West,260,0.0,3.0,89,0.00,,,0.00,0.000000,,2013-02-26 03:31:00,
2013-02-25 22:41:00,17.0,14.0,-100.00,West,260,0.0,3.0,89,0.00,,,0.00,0.000000,,2013-02-26 03:41:00,
2013-02-25 23:11:00,17.0,15.0,-100.00,SE,145,0.0,0.0,90,0.00,,,-99.99,0.000000,,2013-02-26 04:11:00,
2013-02-25 23:21:00,17.0,15.0,-100.00,SE,145,0.0,0.0,90,0.00,,,-99.99,0.000000,,2013-02-26 04:21:00,
2013-02-25 23:31:00,17.0,15.0,-100.00,SE,145,0.0,0.0,90,0.00,,,-99.99,0.000000,,2013-02-26 04:31:00,
2013-02-25 23:42:00,17.0,15.0,-100.00,SE,145,0.0,0.0,90,0.00,,,-99.99,0.000000,,2013-02-26 04:42:00,